Time;durP1;ratioP1;P1;durP2;ratioP2;P2;SDS_P1;SDS_P2;PMS_P1;PMS_P2;Temp;Humidity;BMP_temperature;BMP_pressure;BME280_temperature;BME280_humidity;BME280_pressure;Samples;Min_cycle;Max_cycle;Signal;HPM_P1;HPM_P2
2022/01/11 00:02:23;;;;;;;21.73;11.22;;;;;;;-0.53;76.28;100992.63;1720143;82;21227;-51
2022/01/11 00:05:38;;;;;;;16.45;10.40;;;;;;;-0.55;76.20;101003.47;1716748;82;22176;-52
2022/01/11 00:08:44;;;;;;;15.45;10.45;;;;;;;-0.56;76.15;101002.22;1720427;82;21226;-50
2022/01/11 00:11:51;;;;;;;16.52;9.50;;;;;;;-0.57;75.97;100999.16;1711226;82;21261;-53
2022/01/11 00:14:56;;;;;;;14.53;10.23;;;;;;;-0.58;75.86;101010.84;1707584;82;21214;-53
2022/01/11 00:18:01;;;;;;;17.70;11.03;;;;;;;-0.59;75.70;101017.19;1720546;82;21218;-53
2022/01/11 00:21:09;;;;;;;14.10;8.73;;;;;;;-0.66;75.52;101012.65;1708375;82;21790;-52
2022/01/11 00:24:33;;;;;;;14.45;9.60;;;;;;;-0.70;75.57;101015.61;1707828;82;21191;-52
2022/01/11 00:27:37;;;;;;;14.55;9.38;;;;;;;-0.75;75.60;101017.23;1709909;82;21234;-53
2022/01/11 00:30:46;;;;;;;14.33;9.23;;;;;;;-0.76;75.50;101034.29;1718293;82;21318;-51
2022/01/11 00:33:53;;;;;;;13.65;8.45;;;;;;;-0.79;75.37;101030.91;1719983;82;21301;-51
2022/01/11 00:37:01;;;;;;;16.73;9.35;;;;;;;-0.81;75.22;101017.56;1707227;82;21578;-51
2022/01/11 00:40:09;;;;;;;17.70;9.58;;;;;;;-0.84;75.24;101027.14;1724161;82;21866;-52
2022/01/11 00:43:16;;;;;;;14.50;9.18;;;;;;;-0.88;75.35;101017.55;1716447;82;21546;-51
2022/01/11 00:46:22;;;;;;;16.87;9.88;;;;;;;-0.90;75.38;101023.47;1707311;82;21274;-52
2022/01/11 00:49:27;;;;;;;13.95;8.48;;;;;;;-0.92;75.41;101020.50;1682433;82;21759;-51
2022/01/11 00:52:34;;;;;;;12.78;9.08;;;;;;;-0.89;75.51;101004.20;1707219;82;21238;-51
2022/01/11 00:55:39;;;;;;;15.63;10.00;;;;;;;-0.86;75.57;101012.08;1709098;82;21755;-51
2022/01/11 00:58:47;;;;;;;15.50;9.93;;;;;;;-0.81;75.61;101015.38;1743652;80;21240;-51
2022/01/11 01:01:53;;;;;;;15.08;9.10;;;;;;;-0.79;75.62;101015.66;1770858;80;21259;-52
2022/01/11 01:05:00;;;;;;;15.30;8.83;;;;;;;-0.72;75.65;101018.86;1770863;80;21324;-50
2022/01/11 01:08:05;;;;;;;22.62;11.50;;;;;;;-0.68;75.54;101023.12;1770741;81;21367;-51
2022/01/11 01:11:17;;;;;;;17.57;9.65;;;;;;;-0.69;75.23;101022.70;1770820;80;21387;-52
2022/01/11 01:14:23;;;;;;;14.68;8.30;;;;;;;-0.78;74.99;101025.94;1735138;82;21244;-53
2022/01/11 01:17:29;;;;;;;12.93;8.83;;;;;;;-0.87;74.74;101033.20;1770913;80;21209;-51
2022/01/11 01:20:38;;;;;;;12.73;8.05;;;;;;;-0.95;74.80;101024.70;1770633;80;21209;-53
2022/01/11 01:23:46;;;;;;;12.03;7.12;;;;;;;-1.00;74.99;101031.66;1772641;80;21215;-50
2022/01/11 01:26:53;;;;;;;11.12;7.55;;;;;;;-0.98;75.15;101034.29;1770322;80;21225;-51
2022/01/11 01:29:59;;;;;;;12.88;8.25;;;;;;;-0.93;75.23;101036.20;1771672;80;21193;-52
2022/01/11 01:33:08;;;;;;;15.00;9.78;;;;;;;-0.90;75.08;101038.72;1770796;80;21378;-53
2022/01/11 01:36:15;;;;;;;13.10;8.13;;;;;;;-0.93;74.99;101042.46;1770876;80;21943;-51
2022/01/11 01:39:19;;;;;;;10.08;6.65;;;;;;;-0.97;74.65;101036.02;1770932;80;21349;-50
2022/01/11 01:42:31;;;;;;;12.73;7.10;;;;;;;-1.08;74.54;101040.66;1771709;80;21213;-51
2022/01/11 01:45:37;;;;;;;12.50;6.95;;;;;;;-1.16;74.43;101048.28;1764483;81;21351;-51
2022/01/11 01:48:48;;;;;;;11.60;7.55;;;;;;;-1.21;74.28;101044.10;1771043;80;21832;-53
2022/01/11 01:51:53;;;;;;;11.53;7.12;;;;;;;-1.28;74.20;101033.33;1762215;81;21347;-53
2022/01/11 01:54:59;;;;;;;12.30;8.35;;;;;;;-1.36;74.07;101047.66;1771039;80;21244;-52
2022/01/11 01:58:07;;;;;;;14.30;7.78;;;;;;;-1.42;74.16;101053.34;1770922;80;21259;-52
2022/01/11 02:01:16;;;;;;;11.40;7.20;;;;;;;-1.43;74.01;101050.27;1771061;80;21240;-53
2022/01/11 02:04:23;;;;;;;13.72;7.92;;;;;;;-1.48;73.94;101049.66;1773176;80;21200;-52
2022/01/11 02:07:29;;;;;;;11.75;7.37;;;;;;;-1.48;73.93;101049.66;1773390;80;21247;-54
2022/01/11 02:10:36;;;;;;;12.60;7.25;;;;;;;-1.46;74.14;101051.78;1764924;80;21339;-52
2022/01/11 02:13:44;;;;;;;11.30;6.92;;;;;;;-1.40;74.08;101047.41;1773184;80;21746;-53
2022/01/11 02:16:50;;;;;;;12.98;8.10;;;;;;;-1.36;74.07;101053.87;1773457;80;21203;-53
2022/01/11 02:19:56;;;;;;;13.40;8.08;;;;;;;-1.35;74.14;101042.20;1765027;80;21324;-54
2022/01/11 02:23:04;;;;;;;12.65;8.28;;;;;;;-1.27;74.29;101037.73;1773112;80;21187;-52
2022/01/11 02:26:09;;;;;;;11.68;7.28;;;;;;;-1.24;74.18;101044.28;1772991;80;21763;-53
2022/01/11 02:29:17;;;;;;;12.47;8.18;;;;;;;-1.19;74.06;101039.02;1773369;80;21244;-54
2022/01/11 02:32:24;;;;;;;11.43;7.50;;;;;;;-1.22;73.90;101039.70;1773145;80;21243;-54
2022/01/11 02:35:33;;;;;;;11.28;7.60;;;;;;;-1.25;73.81;101046.59;1773005;80;21491;-53
2022/01/11 02:38:40;;;;;;;12.53;7.87;;;;;;;-1.31;73.54;101050.92;1773172;80;21248;-53
2022/01/11 02:42:02;;;;;;;12.13;7.17;;;;;;;-1.43;73.58;101054.30;1773177;80;21224;-53
2022/01/11 02:45:09;;;;;;;12.60;7.55;;;;;;;-1.48;73.72;101065.30;1763986;81;21359;-53
2022/01/11 02:48:15;;;;;;;11.73;7.30;;;;;;;-1.52;73.88;101064.20;1772766;80;21366;-53
2022/01/11 02:51:22;;;;;;;13.20;7.78;;;;;;;-1.57;73.85;101057.25;1772852;80;21209;-53
2022/01/11 02:54:30;;;;;;;10.03;6.83;;;;;;;-1.57;74.06;101059.09;1773739;80;21244;-53
2022/01/11 02:57:38;;;;;;;12.88;7.78;;;;;;;-1.56;73.99;101046.93;1772957;80;21684;-54
2022/01/11 03:00:46;;;;;;;12.35;7.58;;;;;;;-1.61;73.73;101058.84;1770711;80;21190;-54
2022/01/11 03:03:53;;;;;;;13.03;8.60;;;;;;;-1.61;73.87;101061.53;1770637;81;21189;-54
2022/01/11 03:07:01;;;;;;;14.75;8.00;;;;;;;-1.62;73.73;101064.69;1770717;80;21216;-53
2022/01/11 03:10:17;;;;;;;11.50;6.92;;;;;;;-1.59;73.63;101069.88;1770658;80;21686;-53
2022/01/11 03:13:17;;;;;;;11.93;6.53;;;;;;;-1.61;73.39;101070.47;1770807;81;21701;-54
2022/01/11 03:16:23;;;;;;;9.83;6.22;;;;;;;-1.66;73.34;101075.67;1771085;80;21186;-53
2022/01/11 03:19:28;;;;;;;13.05;6.70;;;;;;;-1.73;73.45;101071.10;1763497;81;21761;-54
2022/01/11 03:22:34;;;;;;;10.58;6.80;;;;;;;-1.76;73.36;101082.50;1770647;80;21212;-53
2022/01/11 03:25:41;;;;;;;10.80;6.75;;;;;;;-1.82;73.46;101098.43;1770651;80;21220;-55
2022/01/11 03:28:48;;;;;;;11.30;6.22;;;;;;;-1.82;73.65;101088.16;1762446;80;21196;-54
2022/01/11 03:31:55;;;;;;;11.22;7.05;;;;;;;-1.83;73.61;101093.14;1770711;80;21224;-54
2022/01/11 03:35:02;;;;;;;11.03;6.03;;;;;;;-1.84;73.84;101103.00;1770991;80;21699;-55
2022/01/11 03:38:08;;;;;;;10.48;6.65;;;;;;;-1.82;73.91;101097.09;1771461;80;21387;-54
2022/01/11 03:41:17;;;;;;;11.48;6.85;;;;;;;-1.80;73.93;101097.89;1770870;80;21860;-54
2022/01/11 03:44:24;;;;;;;11.18;7.33;;;;;;;-1.74;74.02;101098.90;1771007;80;21370;-53
2022/01/11 03:47:30;;;;;;;13.40;8.73;;;;;;;-1.65;74.16;101098.40;1770524;81;21244;-54
2022/01/11 03:50:35;;;;;;;14.85;9.20;;;;;;;-1.57;74.16;101098.86;1770957;80;21268;-53
2022/01/11 03:54:03;;;;;;;13.22;8.20;;;;;;;-1.55;74.16;101098.31;1770907;80;21292;-53
2022/01/11 03:57:05;;;;;;;15.88;8.85;;;;;;;-1.52;74.26;101107.16;1771025;80;21217;-53
2022/01/11 04:00:15;;;;;;;46.60;19.50;;;;;;;-1.48;74.45;101117.64;1770798;81;21174;-54
2022/01/11 04:03:23;;;;;;;21.77;12.58;;;;;;;-1.51;74.50;101115.13;1762421;80;21359;-52
2022/01/11 04:06:30;;;;;;;20.35;10.60;;;;;;;-1.54;74.60;101112.11;1770692;80;21225;-54
2022/01/11 04:09:38;;;;;;;18.15;11.18;;;;;;;-1.57;74.71;101110.94;1770757;80;21264;-53
2022/01/11 04:12:48;;;;;;;22.05;12.15;;;;;;;-1.57;74.92;101114.13;1762331;80;21217;-53
2022/01/11 04:15:54;;;;;;;19.52;10.78;;;;;;;-1.62;74.93;101118.36;1770613;81;21231;-54
2022/01/11 04:19:00;;;;;;;22.93;13.18;;;;;;;-1.62;75.09;101117.52;1770809;80;21241;-55
2022/01/11 04:22:07;;;;;;;28.70;14.18;;;;;;;-1.64;75.15;101112.69;1771045;80;21244;-54
2022/01/11 04:25:16;;;;;;;21.52;12.78;;;;;;;-1.64;75.12;101122.09;1770743;80;21267;-52
2022/01/11 04:28:27;;;;;;;20.45;11.80;;;;;;;-1.68;75.05;101128.55;1770726;81;21208;-53
2022/01/11 04:31:30;;;;;;;21.23;12.82;;;;;;;-1.75;75.20;101128.50;1770470;80;21279;-52
2022/01/11 04:34:41;;;;;;;23.35;13.65;;;;;;;-1.73;75.30;101126.61;1771163;80;21691;-53
2022/01/11 04:37:48;;;;;;;21.97;13.03;;;;;;;-1.73;75.35;101127.45;1770408;80;21251;-53
2022/01/11 04:40:57;;;;;;;26.37;13.60;;;;;;;-1.73;75.46;101134.16;1771342;80;21224;-52
2022/01/11 04:44:04;;;;;;;24.85;13.85;;;;;;;-1.72;75.52;101135.92;1771060;80;21212;-53
2022/01/11 04:47:13;;;;;;;30.48;15.65;;;;;;;-1.69;75.49;101130.85;1770667;80;21312;-53
2022/01/11 04:50:20;;;;;;;26.37;15.58;;;;;;;-1.70;75.38;101129.97;1769362;81;21693;-53
2022/01/11 04:53:26;;;;;;;30.60;16.80;;;;;;;-1.67;75.54;101132.98;1770686;80;21189;-53
2022/01/11 04:56:34;;;;;;;27.58;14.78;;;;;;;-1.64;75.68;101124.31;1771146;79;21287;-54
2022/01/11 04:59:40;;;;;;;27.17;15.18;;;;;;;-1.57;75.81;101129.73;1770660;80;21264;-54
2022/01/11 05:02:46;;;;;;;30.85;16.17;;;;;;;-1.53;75.60;101127.75;1769522;79;21220;-53
2022/01/11 05:05:54;;;;;;;32.10;17.10;;;;;;;-1.54;75.37;101130.05;1770753;79;21208;-52
2022/01/11 05:08:59;;;;;;;27.58;16.77;;;;;;;-1.58;75.37;101128.00;1770481;80;21722;-53
2022/01/11 05:12:07;;;;;;;33.65;16.75;;;;;;;-1.57;75.44;101135.59;1770741;79;21893;-52
2022/01/11 05:15:18;;;;;;;33.20;17.10;;;;;;;-1.58;75.23;101140.08;1738823;82;21162;-53
2022/01/11 05:18:27;;;;;;;29.50;16.95;;;;;;;-1.64;74.86;101140.41;1738605;82;21189;-53
2022/01/11 05:21:33;;;;;;;33.78;18.07;;;;;;;-1.65;74.97;101145.36;1738915;81;21571;-53
2022/01/11 05:24:38;;;;;;;32.60;17.42;;;;;;;-1.64;74.92;101138.19;1739428;82;21192;-53
2022/01/11 05:27:43;;;;;;;29.85;16.42;;;;;;;-1.63;74.91;101134.08;1740034;82;21661;-53
2022/01/11 05:30:48;;;;;;;32.80;16.37;;;;;;;-1.63;74.80;101142.59;1739798;81;21730;-53
2022/01/11 05:33:53;;;;;;;28.85;16.48;;;;;;;-1.62;74.83;101143.02;1740002;82;21335;-53
2022/01/11 05:36:59;;;;;;;34.20;18.27;;;;;;;-1.61;74.86;101142.94;1740261;81;21887;-54
2022/01/11 05:40:05;;;;;;;30.85;17.52;;;;;;;-1.56;74.85;101150.73;1742876;81;21348;-53
2022/01/11 05:43:12;;;;;;;30.15;15.38;;;;;;;-1.54;74.82;101157.74;1769494;81;21237;-53
2022/01/11 05:46:19;;;;;;;31.68;16.40;;;;;;;-1.57;74.37;101153.04;1764367;80;21356;-55
2022/01/11 05:49:24;;;;;;;33.40;17.40;;;;;;;-1.66;74.30;101155.72;1768675;80;21753;-54
2022/01/11 05:52:31;;;;;;;36.73;18.85;;;;;;;-1.73;74.37;101165.52;1765938;80;21169;-54
2022/01/11 05:55:37;;;;;;;32.75;15.93;;;;;;;-1.73;74.51;101167.70;1768231;79;21267;-54
2022/01/11 05:58:46;;;;;;;31.97;16.50;;;;;;;-1.74;74.43;101170.01;1766860;80;21172;-54
2022/01/11 06:01:52;;;;;;;33.33;18.02;;;;;;;-1.79;74.38;101176.08;1737973;81;21212;-55
2022/01/11 06:04:58;;;;;;;32.65;15.32;;;;;;;-1.85;74.55;101184.45;1763294;79;21349;-53
2022/01/11 06:08:05;;;;;;;35.68;17.05;;;;;;;-1.84;74.78;101183.48;1766120;80;21185;-53
2022/01/11 06:11:12;;;;;;;33.45;17.32;;;;;;;-1.82;74.87;101184.75;1766035;80;21256;-55
2022/01/11 06:14:20;;;;;;;37.95;18.85;;;;;;;-1.79;74.94;101189.50;1736422;81;21193;-54
2022/01/11 06:17:29;;;;;;;39.70;17.85;;;;;;;-1.79;75.01;101194.86;1736195;79;21221;-55
2022/01/11 06:20:38;;;;;;;32.33;16.95;;;;;;;-1.75;75.07;101195.12;1750619;80;21252;-54
2022/01/11 06:23:42;;;;;;;36.03;18.85;;;;;;;-1.75;74.84;101195.12;1766210;80;21191;-54
2022/01/11 06:26:48;;;;;;;33.67;15.60;;;;;;;-1.79;74.82;101199.34;1767241;81;21257;-54
2022/01/11 06:29:54;;;;;;;33.75;17.17;;;;;;;-1.81;74.96;101210.16;1767691;80;21635;-54
2022/01/11 06:32:59;;;;;;;33.30;17.65;;;;;;;-1.84;74.93;101213.00;1768193;81;21712;-53
2022/01/11 06:36:14;;;;;;;34.48;18.27;;;;;;;-1.88;75.06;101218.14;1768907;80;21261;-55
2022/01/11 06:39:16;;;;;;;33.05;18.07;;;;;;;-1.85;75.25;101212.63;1768470;80;21190;-54
2022/01/11 06:42:24;;;;;;;38.60;19.60;;;;;;;-1.82;75.20;101208.90;1769380;80;21262;-54
2022/01/11 06:45:30;;;;;;;37.73;19.15;;;;;;;-1.83;75.33;101219.25;1768586;81;21193;-54
2022/01/11 06:48:41;;;;;;;41.70;21.05;;;;;;;-1.82;75.53;101224.53;1760566;81;21189;-54
2022/01/11 06:51:46;;;;;;;41.80;20.97;;;;;;;-1.73;75.61;101216.50;1768534;79;21796;-54
2022/01/11 06:54:53;;;;;;;38.67;19.07;;;;;;;-1.66;75.56;101218.79;1770789;80;21193;-55
2022/01/11 06:58:00;;;;;;;41.95;19.05;;;;;;;-1.60;75.58;101226.98;1770431;81;21208;-55
2022/01/11 07:01:07;;;;;;;40.95;20.90;;;;;;;-1.57;75.45;101219.64;1770679;79;21873;-54
2022/01/11 07:04:16;;;;;;;42.17;20.65;;;;;;;-1.58;75.42;101230.00;1769292;81;21204;-54
2022/01/11 07:07:21;;;;;;;37.15;19.40;;;;;;;-1.60;75.29;101230.55;1739040;80;21197;-55
2022/01/11 07:10:29;;;;;;;41.20;19.65;;;;;;;-1.62;75.35;101234.27;1756034;81;21562;-55
2022/01/11 07:13:36;;;;;;;36.58;18.70;;;;;;;-1.71;75.30;101248.13;1757601;81;21178;-55
2022/01/11 07:16:48;;;;;;;37.93;20.90;;;;;;;-1.82;75.52;101240.63;1760737;81;21259;-55
2022/01/11 07:19:51;;;;;;;42.58;22.80;;;;;;;-1.80;75.77;101241.44;1762702;80;21177;-54
2022/01/11 07:23:02;;;;;;;35.03;19.27;;;;;;;-1.73;75.96;101241.50;1770431;80;21165;-54
2022/01/11 07:26:08;;;;;;;40.10;20.37;;;;;;;-1.70;75.87;101242.69;1770565;80;21221;-54
2022/01/11 07:29:18;;;;;;;41.15;19.75;;;;;;;-1.64;76.08;101246.89;1770376;81;21318;-54
2022/01/11 07:32:24;;;;;;;43.68;23.18;;;;;;;-1.70;75.78;101241.34;1769664;81;21205;-53
2022/01/11 07:35:33;;;;;;;42.08;20.32;;;;;;;-1.75;76.01;101242.54;1758352;80;21797;-54
2022/01/11 07:38:41;;;;;;;39.15;19.25;;;;;;;-1.76;76.17;101256.42;1770727;80;21260;-54
2022/01/11 07:41:50;;;;;;;46.48;22.20;;;;;;;-1.74;76.26;101244.27;1770218;81;21240;-55
2022/01/11 07:45:05;;;;;;;40.23;20.15;;;;;;;-1.79;76.26;101245.84;1760312;81;21189;-54
2022/01/11 07:48:11;;;;;;;42.70;21.15;;;;;;;-1.90;76.12;101258.93;1753249;80;21829;-53
2022/01/11 07:51:19;;;;;;;39.75;20.80;;;;;;;-1.99;76.33;101255.37;1757374;80;21192;-54
2022/01/11 07:54:27;;;;;;;47.60;21.85;;;;;;;-2.05;76.59;101253.45;1767716;80;21336;-54
2022/01/11 07:57:36;;;;;;;39.98;20.77;;;;;;;-2.02;76.89;101254.64;1762074;79;21263;-54
2022/01/11 08:00:42;;;;;;;39.20;19.98;;;;;;;-1.94;76.97;101251.99;1760477;81;21777;-55
2022/01/11 08:03:50;;;;;;;39.73;20.30;;;;;;;-1.89;76.93;101243.71;1768268;80;21227;-54
2022/01/11 08:06:57;;;;;;;41.08;21.10;;;;;;;-1.83;76.85;101262.17;1759348;80;21236;-54
2022/01/11 08:10:07;;;;;;;38.70;19.52;;;;;;;-1.78;76.50;101247.61;1739113;82;21196;-54
2022/01/11 08:13:12;;;;;;;35.40;18.75;;;;;;;-1.72;76.28;101252.66;1738732;82;22026;-55
2022/01/11 08:16:21;;;;;;;40.70;19.87;;;;;;;-1.72;76.02;101255.34;1754014;81;21173;-54
2022/01/11 08:19:30;;;;;;;40.67;18.32;;;;;;;-1.66;75.70;101255.02;1767586;80;21233;-54
2022/01/11 08:22:38;;;;;;;38.55;19.37;;;;;;;-1.61;75.59;101259.69;1767556;81;21340;-55
2022/01/11 08:25:45;;;;;;;32.48;17.62;;;;;;;-1.59;75.16;101247.03;1766809;80;21583;-54
2022/01/11 08:28:53;;;;;;;35.30;20.02;;;;;;;-1.60;74.94;101257.84;1769570;80;21549;-55
2022/01/11 08:31:58;;;;;;;35.25;17.77;;;;;;;-1.67;74.57;101253.30;1767808;79;21616;-55
2022/01/11 08:35:06;;;;;;;34.88;18.02;;;;;;;-1.66;74.39;101254.14;1767959;80;21181;-57
2022/01/11 08:38:13;;;;;;;40.43;19.25;;;;;;;-1.73;74.22;101252.23;1769177;80;21212;-54
2022/01/11 08:41:22;;;;;;;34.27;17.75;;;;;;;-1.73;74.20;101248.21;1769883;79;21220;-56
2022/01/11 08:44:27;;;;;;;32.63;17.02;;;;;;;-1.73;74.19;101256.27;1768262;81;21805;-54
2022/01/11 08:47:35;;;;;;;31.52;15.88;;;;;;;-1.74;74.18;101249.17;1769996;80;21393;-53
2022/01/11 08:50:40;;;;;;;27.73;15.93;;;;;;;-1.76;74.07;101253.73;1770544;79;21414;-55
2022/01/11 08:53:46;;;;;;;34.73;17.25;;;;;;;-1.82;74.05;101242.44;1768688;80;21651;-56
2022/01/11 08:56:55;;;;;;;32.80;17.48;;;;;;;-1.83;74.17;101237.57;1769195;80;21726;-56
2022/01/11 09:00:06;;;;;;;29.10;17.35;;;;;;;-1.77;74.26;101233.23;1769122;80;21423;-55
2022/01/11 09:03:16;;;;;;;31.73;17.55;;;;;;;-1.65;74.40;101243.82;1769587;80;21382;-54
2022/01/11 09:06:24;;;;;;;29.65;15.20;;;;;;;-1.57;74.29;101225.52;1769891;80;21773;-55
2022/01/11 09:09:32;;;;;;;27.05;15.53;;;;;;;-1.47;74.01;101220.04;1767543;79;21324;-55
2022/01/11 09:12:39;;;;;;;22.00;13.28;;;;;;;-1.39;73.79;101223.66;1731376;82;21766;-55
2022/01/11 09:15:46;;;;;;;30.95;14.10;;;;;;;-1.37;73.43;101219.97;1728283;82;21251;-55
2022/01/11 09:18:57;;;;;;;30.40;17.25;;;;;;;-1.47;72.70;101233.46;1692487;84;22177;-55
2022/01/11 09:22:04;;;;;;;30.10;16.45;;;;;;;-1.55;72.74;101227.16;1696976;83;21245;-55
2022/01/11 09:25:10;;;;;;;25.95;15.75;;;;;;;-1.60;72.84;101231.89;1705165;83;21733;-54
2022/01/11 09:28:21;;;;;;;25.15;13.90;;;;;;;-1.64;72.58;101218.70;1710506;83;21196;-56
2022/01/11 09:31:28;;;;;;;29.25;16.00;;;;;;;-1.70;72.16;101246.71;1691265;83;21236;-55
2022/01/11 09:34:37;;;;;;;25.10;14.78;;;;;;;-1.81;71.76;101240.17;1708449;83;21308;-54
2022/01/11 09:37:46;;;;;;;28.35;12.88;;;;;;;-1.89;71.81;101238.34;1703448;84;21746;-54
2022/01/11 09:40:56;;;;;;;20.77;11.45;;;;;;;-1.93;71.60;101251.03;1718975;83;21214;-54
2022/01/11 09:44:02;;;;;;;18.12;10.08;;;;;;;-2.04;71.22;101237.29;1710892;83;21184;-55
2022/01/11 09:47:07;;;;;;;18.82;11.38;;;;;;;-2.14;71.31;101215.88;1720934;82;21267;-54
2022/01/11 09:50:15;;;;;;;19.42;10.98;;;;;;;-2.20;71.33;101226.91;1675912;84;21213;-53
2022/01/11 09:53:24;;;;;;;18.60;10.95;;;;;;;-2.16;71.28;101242.39;1673921;85;21209;-54
2022/01/11 09:56:32;;;;;;;21.00;11.75;;;;;;;-2.12;70.97;101234.58;1728859;82;21750;-56
2022/01/11 09:59:39;;;;;;;16.42;10.78;;;;;;;-2.20;70.67;101246.14;1757593;81;21232;-54
2022/01/11 10:03:04;;;;;;;19.25;11.38;;;;;;;-2.17;70.90;101241.51;1759356;80;21900;-56
2022/01/11 10:06:24;;;;;;;19.87;11.53;;;;;;;-2.09;70.96;101234.42;1770047;79;21733;-54
2022/01/11 10:09:32;;;;;;;19.00;10.70;;;;;;;-1.96;70.77;101229.73;1767961;79;21236;-56
2022/01/11 10:13:03;;;;;;;16.62;10.90;;;;;;;-1.90;70.53;101220.02;1769100;80;21216;-56
2022/01/11 10:16:35;;;;;;;18.55;11.22;;;;;;;-1.82;70.51;101231.25;1768717;80;21593;-55
2022/01/11 10:19:41;;;;;;;18.82;11.43;;;;;;;-1.74;70.14;101220.99;1769936;80;21248;-54
2022/01/11 10:23:10;;;;;;;17.23;10.85;;;;;;;-1.76;69.79;101224.72;1769614;81;21249;-56
2022/01/11 10:26:15;;;;;;;17.90;10.93;;;;;;;-1.74;69.52;101219.65;1769687;79;21259;-55
2022/01/11 10:29:35;;;;;;;17.80;11.22;;;;;;;-1.69;69.69;101220.29;1769239;80;21229;-55
2022/01/11 10:32:46;;;;;;;15.63;9.75;;;;;;;-1.61;69.50;101220.77;1761629;81;21240;-55
2022/01/11 10:35:56;;;;;;;15.88;9.58;;;;;;;-1.61;69.28;101229.28;1767411;81;21813;-55
2022/01/11 10:39:37;;;;;;;17.48;9.73;;;;;;;-1.68;68.93;101224.70;1766914;81;21229;-55
2022/01/11 10:42:46;;;;;;;21.23;11.05;;;;;;;-1.67;69.13;101226.92;1769078;81;21192;-53
2022/01/11 10:46:02;;;;;;;16.50;10.80;;;;;;;-1.67;68.91;101218.41;1770512;79;21319;-54
2022/01/11 10:49:07;;;;;;;20.02;10.53;;;;;;;-1.63;68.80;101221.77;1765651;81;21339;-55
2022/01/11 10:52:35;;;;;;;16.60;9.70;;;;;;;-1.72;68.21;101222.25;1752183;80;21737;-53
2022/01/11 10:55:45;;;;;;;19.45;12.03;;;;;;;-1.85;68.46;101226.03;1738870;81;21232;-53
2022/01/11 10:59:17;;;;;;;15.45;9.53;;;;;;;-1.85;68.62;101228.72;1765921;80;21204;-54
2022/01/11 11:02:35;;;;;;;17.52;10.50;;;;;;;-1.79;68.54;101218.12;1764453;79;21260;-54
2022/01/11 11:06:10;;;;;;;15.75;9.20;;;;;;;-1.79;68.05;101217.67;1765307;79;21570;-54
2022/01/11 11:09:26;;;;;;;14.80;10.20;;;;;;;-1.90;67.68;101230.76;1768007;81;21260;-54
2022/01/11 11:12:31;;;;;;;15.38;8.88;;;;;;;-1.96;67.91;101227.52;1771321;79;21331;-54
2022/01/11 11:15:49;;;;;;;13.98;9.70;;;;;;;-1.95;68.06;101234.14;1770375;80;21982;-55
2022/01/11 11:18:57;;;;;;;15.35;10.30;;;;;;;-1.90;68.00;101238.81;1771379;80;21175;-54
2022/01/11 11:22:25;;;;;;;15.55;9.43;;;;;;;-1.89;67.79;101243.22;1762542;81;21410;-55
2022/01/11 11:25:34;;;;;;;14.25;8.93;;;;;;;-1.90;67.56;101245.52;1769938;79;21633;-54
2022/01/11 11:28:43;;;;;;;12.37;9.28;;;;;;;-1.96;67.35;101251.19;1767185;80;21801;-55
2022/01/11 11:31:47;;;;;;;15.05;9.03;;;;;;;-1.97;67.66;101252.15;1770875;79;21204;-55
2022/01/11 11:34:59;;;;;;;13.05;9.55;;;;;;;-1.97;67.29;101242.76;1771441;80;21184;-54
2022/01/11 11:38:09;;;;;;;17.07;9.80;;;;;;;-2.02;67.61;101246.14;1764695;81;21751;-54
2022/01/11 11:41:15;;;;;;;11.78;7.97;;;;;;;-1.95;67.49;101245.36;1769633;80;21826;-54
2022/01/11 11:44:27;;;;;;;12.63;8.13;;;;;;;-1.98;67.11;101253.07;1759877;81;21410;-55
2022/01/11 11:47:42;;;;;;;13.75;9.50;;;;;;;-2.06;67.16;101251.73;1765068;80;21359;-55
2022/01/11 11:51:12;;;;;;;13.53;8.95;;;;;;;-2.19;67.11;101250.58;1771149;79;21691;-54
2022/01/11 11:54:21;;;;;;;13.53;8.00;;;;;;;-2.24;67.53;101254.84;1770383;80;21177;-55
2022/01/11 11:57:33;;;;;;;14.07;8.93;;;;;;;-2.25;67.35;101257.09;1739730;81;21267;-54
2022/01/11 12:00:46;;;;;;;14.63;8.40;;;;;;;-2.27;67.65;101257.67;1742010;81;21235;-54
2022/01/11 12:03:52;;;;;;;13.18;7.03;;;;;;;-2.16;67.72;101269.20;1759058;81;21773;-56
2022/01/11 12:07:00;;;;;;;10.43;6.65;;;;;;;-2.10;67.04;101268.44;1769369;81;21738;-55
2022/01/11 12:10:08;;;;;;;11.43;7.50;;;;;;;-2.16;66.41;101278.13;1768114;81;21169;-55
2022/01/11 12:13:13;;;;;;;14.03;7.78;;;;;;;-2.24;66.00;101270.92;1770514;80;21770;-54
2022/01/11 12:16:39;;;;;;;12.28;7.58;;;;;;;-2.29;66.04;101276.09;1771546;79;21755;-54
2022/01/11 12:19:55;;;;;;;12.18;7.30;;;;;;;-2.26;66.22;101276.83;1769994;80;21695;-54
2022/01/11 12:23:00;;;;;;;12.30;6.83;;;;;;;-2.14;66.37;101271.34;1770261;80;21773;-54
2022/01/11 12:26:23;;;;;;;12.28;7.00;;;;;;;-2.05;65.55;101278.48;1763454;80;22051;-55
2022/01/11 12:29:34;;;;;;;10.15;6.28;;;;;;;-2.12;65.38;101282.39;1743644;80;21144;-55
2022/01/11 12:32:47;;;;;;;12.40;7.00;;;;;;;-2.21;64.93;101288.66;1766558;80;21217;-56
2022/01/11 12:36:09;;;;;;;11.55;6.97;;;;;;;-2.36;64.99;101296.95;1769878;80;21212;-56
2022/01/11 12:39:16;;;;;;;10.38;6.28;;;;;;;-2.46;65.20;101305.52;1752022;81;21324;-56
2022/01/11 12:42:33;;;;;;;10.00;7.50;;;;;;;-2.49;65.46;101293.11;1765002;81;21781;-56
2022/01/11 12:46:06;;;;;;;13.18;7.67;;;;;;;-2.45;65.56;101294.72;1769696;80;21367;-56
2022/01/11 12:49:11;;;;;;;14.00;9.43;;;;;;;-2.43;65.59;101299.55;1766643;80;21590;-56
2022/01/11 12:52:18;;;;;;;15.43;8.18;;;;;;;-2.46;65.82;101307.73;1744898;80;21298;-55
2022/01/11 12:55:25;;;;;;;11.15;6.83;;;;;;;-2.44;66.01;101304.48;1769393;80;21799;-55
2022/01/11 12:58:34;;;;;;;10.25;7.10;;;;;;;-2.39;66.08;101308.29;1768875;80;21185;-55
2022/01/11 13:01:50;;;;;;;14.73;8.50;;;;;;;-2.46;66.04;101309.53;1766737;81;21730;-56
2022/01/11 13:05:05;;;;;;;17.10;10.00;;;;;;;-2.46;66.29;101322.48;1768385;80;21203;-56
2022/01/11 13:08:11;;;;;;;11.90;7.80;;;;;;;-2.49;66.03;101315.05;1757486;81;21181;-56
2022/01/11 13:11:25;;;;;;;13.75;7.85;;;;;;;-2.69;65.79;101319.09;1767916;79;21208;-56
2022/01/11 13:14:42;;;;;;;9.58;5.92;;;;;;;-2.78;66.10;101327.09;1732705;81;21460;-55
2022/01/11 13:18:09;;;;;;;10.10;6.03;;;;;;;-2.85;66.03;101345.70;1734424;81;21199;-54
2022/01/11 13:21:15;;;;;;;13.08;7.12;;;;;;;-2.98;66.06;101349.84;1734480;81;21196;-55
2022/01/11 13:27:31;;;;;;;11.60;7.10;;;;;;;-3.20;66.40;101340.55;1733402;81;21601;-55
2022/01/11 13:30:49;;;;;;;10.32;6.92;;;;;;;-3.23;66.61;101358.55;1733662;81;21748;-54
2022/01/11 13:34:00;;;;;;;10.78;6.65;;;;;;;-3.25;66.70;101365.30;1733490;82;21267;-55
2022/01/11 13:37:05;;;;;;;12.18;6.72;;;;;;;-3.26;66.82;101360.02;1733803;81;22250;-55
2022/01/11 13:40:18;;;;;;;7.47;5.58;;;;;;;-3.22;67.14;101370.52;1734129;81;21745;-56
2022/01/11 13:43:28;;;;;;;10.32;5.60;;;;;;;-3.23;66.45;101363.91;1733461;82;21254;-57
2022/01/11 13:46:34;;;;;;;11.15;6.05;;;;;;;-3.36;66.08;101366.23;1711315;82;21224;-55
2022/01/11 13:49:43;;;;;;;7.45;5.58;;;;;;;-3.39;66.36;101358.79;1733504;82;21620;-55
2022/01/11 13:52:50;;;;;;;8.95;5.47;;;;;;;-3.38;66.12;101376.13;1734897;82;21982;-55
2022/01/11 13:55:57;;;;;;;9.80;5.70;;;;;;;-3.43;66.15;101363.88;1735520;81;21976;-55
2022/01/11 13:59:03;;;;;;;10.03;6.00;;;;;;;-3.49;66.31;101376.19;1735302;82;21191;-55
2022/01/11 14:02:19;;;;;;;9.18;6.08;;;;;;;-3.52;66.28;101374.48;1735813;81;21263;-55
2022/01/11 14:05:28;;;;;;;11.50;6.87;;;;;;;-3.49;66.39;101373.52;1736353;81;21251;-54
2022/01/11 14:08:42;;;;;;;10.03;7.00;;;;;;;-3.53;66.45;101371.42;1736066;82;21785;-55
2022/01/11 14:12:14;;;;;;;9.50;5.67;;;;;;;-3.52;66.79;101385.69;1734699;81;21820;-55
2022/01/11 14:15:16;;;;;;;10.72;6.30;;;;;;;-3.51;66.71;101394.10;1764120;79;21873;-54
2022/01/11 14:18:25;;;;;;;9.03;6.28;;;;;;;-3.60;66.89;101395.34;1760127;80;21621;-55
2022/01/11 14:21:31;;;;;;;10.65;7.03;;;;;;;-3.56;67.23;101391.62;1749102;81;21404;-55
2022/01/11 14:24:57;;;;;;;12.88;8.03;;;;;;;-3.50;67.41;101395.83;1769344;80;21841;-55
2022/01/11 14:28:19;;;;;;;11.73;7.70;;;;;;;-3.44;67.57;101392.93;1769494;80;21204;-54
2022/01/11 14:31:27;;;;;;;9.03;6.00;;;;;;;-3.47;67.32;101409.08;1769801;79;21777;-53